createdAt,value
2019-04-28T00:04:16.610Z,93.00
2019-04-28T00:09:21.566Z,93.40
2019-04-28T00:14:26.153Z,93.60
2019-04-28T00:19:31.016Z,93.90
2019-04-28T00:24:52.791Z,93.10
2019-04-28T00:29:56.374Z,93.00
2019-04-28T00:35:02.152Z,92.40
2019-04-28T00:40:07.476Z,92.60
2019-04-28T00:45:13.069Z,92.60
2019-04-28T00:50:17.148Z,93.00
2019-04-28T00:55:21.041Z,93.10
2019-04-28T01:00:26.774Z,92.90
2019-04-28T01:05:31.179Z,92.60
2019-04-28T01:10:35.002Z,92.80
2019-04-28T01:15:42.850Z,92.40
2019-04-28T01:20:46.582Z,92.30
2019-04-28T01:25:50.230Z,92.30
2019-04-28T01:30:55.630Z,91.90
2019-04-28T01:36:00.465Z,92.20
2019-04-28T01:41:04.171Z,91.40
2019-04-28T01:46:10.038Z,91.90
2019-04-28T01:51:13.749Z,91.50
2019-04-28T01:56:17.638Z,91.80
2019-04-28T02:01:21.290Z,92.20
2019-04-28T02:06:25.289Z,91.80
2019-04-28T02:11:29.639Z,91.60
2019-04-28T02:16:33.658Z,92.00
2019-04-28T02:21:44.838Z,91.70
2019-04-28T02:26:52.347Z,92.30
2019-04-28T02:31:54.291Z,92.10
2019-04-28T02:37:00.983Z,92.10
2019-04-28T02:42:03.392Z,92.10
2019-04-28T02:47:07.054Z,92.20
2019-04-28T02:52:15.192Z,92.90
2019-04-28T02:57:20.815Z,93.10
2019-04-28T03:02:24.218Z,93.20
2019-04-28T03:07:27.875Z,93.50
2019-04-28T03:12:31.726Z,94.00
2019-04-28T03:17:35.898Z,94.30
2019-04-28T03:22:40.715Z,94.00
2019-04-28T03:27:50.943Z,93.60
2019-04-28T03:33:04.916Z,91.90
2019-04-28T03:38:01.703Z,91.60
2019-04-28T03:43:05.356Z,91.50
2019-04-28T03:48:11.337Z,91.90
2019-04-28T03:53:14.549Z,91.90
2019-04-28T03:58:21.877Z,91.60
2019-04-28T04:03:23.485Z,91.40
2019-04-28T04:08:27.062Z,91.70
2019-04-28T04:13:33.037Z,91.60
2019-04-28T04:18:40.685Z,90.70
2019-04-28T04:23:43.774Z,91.10
2019-04-28T04:28:47.674Z,91.00
2019-04-28T04:33:51.332Z,91.40
2019-04-28T04:38:54.981Z,91.90
2019-04-28T04:44:01.172Z,92.50
2019-04-28T04:49:04.622Z,92.90
2019-04-28T04:54:10.621Z,92.80
2019-04-28T04:59:13.493Z,93.20
2019-04-28T05:04:24.234Z,93.20
2019-04-28T05:09:29.354Z,92.80
2019-04-28T05:14:33.484Z,93.10
2019-04-28T05:19:37.379Z,93.20
2019-04-28T05:24:46.354Z,92.90
2019-04-28T05:29:51.187Z,93.50
2019-04-28T05:34:53.404Z,93.80
2019-04-28T05:39:56.977Z,93.40
2019-04-28T05:45:00.559Z,93.40
2019-04-28T05:50:12.546Z,94.10
2019-04-28T05:55:35.759Z,93.90
2019-04-28T06:00:47.056Z,93.80
2019-04-28T06:05:50.709Z,94.30
2019-04-28T06:10:54.286Z,93.60
2019-04-28T06:15:59.749Z,93.40
2019-04-28T06:21:03.421Z,93.60
2019-04-28T06:26:07.477Z,94.00
2019-04-28T06:31:11.197Z,93.20
2019-04-28T06:36:15.133Z,93.30
2019-04-28T06:41:18.709Z,93.80
2019-04-28T06:46:22.683Z,93.40
2019-04-28T06:51:26.251Z,92.80
2019-04-28T06:56:29.879Z,93.10
2019-04-28T07:01:33.400Z,92.80
2019-04-28T07:06:37.052Z,92.00
2019-04-28T07:11:40.769Z,92.10
2019-04-28T07:16:44.343Z,92.10
2019-04-28T07:21:55.371Z,91.80
2019-04-28T07:26:59.409Z,91.90
2019-04-28T07:32:03.133Z,91.40
2019-04-28T07:37:06.868Z,91.00
2019-04-28T07:42:10.525Z,90.50
2019-04-28T07:47:14.242Z,89.50
2019-04-28T07:52:22.864Z,90.40
2019-04-28T07:57:26.580Z,88.20
2019-04-28T08:02:30.278Z,86.70
2019-04-28T08:07:34.239Z,83.30
2019-04-28T08:12:37.979Z,83.20
2019-04-28T08:17:41.535Z,81.10
2019-04-28T08:22:45.108Z,80.60
2019-04-28T08:27:48.768Z,78.80
2019-04-28T08:32:57.366Z,77.50
2019-04-28T08:38:00.932Z,80.30
2019-04-28T08:43:04.756Z,80.60
2019-04-28T08:48:08.350Z,78.10
2019-04-28T08:53:14.007Z,78.90
2019-04-28T08:58:17.152Z,79.40
2019-04-28T09:03:20.737Z,78.00
2019-04-28T09:08:24.316Z,78.00
2019-04-28T09:13:28.219Z,72.50
2019-04-28T09:18:31.797Z,72.00
2019-04-28T09:23:35.371Z,71.80
2019-04-28T09:28:39.462Z,70.90
2019-04-28T09:33:43.040Z,71.70
2019-04-28T09:38:46.709Z,72.70
2019-04-28T09:44:04.251Z,72.50
2019-04-28T09:49:07.856Z,70.90
2019-04-28T09:54:11.449Z,71.10
2019-04-28T09:59:15.397Z,69.30
2019-04-28T10:04:20.244Z,66.50
2019-04-28T10:09:23.900Z,71.10
2019-04-28T10:14:27.496Z,70.10
2019-04-28T10:19:32.599Z,72.90
2019-04-28T10:24:36.449Z,77.10
2019-04-28T10:29:40.029Z,78.00
2019-04-28T10:34:54.352Z,76.50
2019-04-28T10:39:53.594Z,81.20
2019-04-28T10:44:57.521Z,77.20
2019-04-28T10:50:01.450Z,78.60
2019-04-28T10:55:05.961Z,74.40
2019-04-28T11:00:11.429Z,75.80
2019-04-28T11:05:22.776Z,71.50
2019-04-28T11:10:26.448Z,74.40
2019-04-28T11:15:34.464Z,71.90
2019-04-28T11:20:38.193Z,69.20
2019-04-28T11:25:42.278Z,68.10
2019-04-28T11:30:45.928Z,72.40
2019-04-28T11:35:50.297Z,75.90
2019-04-28T11:40:54.060Z,81.20
2019-04-28T11:45:57.861Z,85.80
2019-04-28T11:51:01.452Z,87.40
2019-04-28T11:56:06.176Z,89.20
2019-04-28T12:01:11.692Z,89.90
2019-04-28T12:06:15.540Z,90.40
2019-04-28T12:11:23.883Z,90.20
2019-04-28T12:16:32.013Z,90.50
2019-04-28T12:21:35.729Z,90.90
2019-04-28T12:26:39.306Z,88.70
2019-04-28T12:31:42.953Z,89.10
2019-04-28T12:36:46.529Z,86.90
2019-04-28T12:41:50.105Z,86.90
2019-04-28T12:46:53.758Z,90.10
2019-04-28T12:51:57.778Z,88.90
2019-04-28T12:57:01.510Z,87.20
2019-04-28T13:02:10.425Z,89.10
2019-04-28T13:07:14.481Z,90.30
2019-04-28T13:12:18.100Z,90.60
2019-04-28T13:17:21.735Z,90.50
2019-04-28T13:22:27.095Z,91.40
2019-04-28T13:27:30.637Z,92.70
2019-04-28T13:32:34.395Z,92.30
2019-04-28T13:37:38.189Z,93.20
2019-04-28T13:42:42.033Z,92.90
2019-04-28T13:47:45.782Z,91.70
2019-04-28T13:52:49.425Z,90.20
2019-04-28T13:57:53.469Z,86.60
2019-04-28T14:02:59.108Z,85.60
2019-04-28T14:08:03.127Z,84.90
2019-04-28T14:13:07.234Z,84.20
2019-04-28T14:18:12.353Z,78.10
2019-04-28T14:23:16.452Z,79.90
2019-04-28T14:28:21.896Z,84.30
2019-04-28T14:33:25.962Z,76.20
2019-04-28T14:38:29.927Z,75.10
2019-04-28T14:43:33.544Z,76.70
2019-04-28T14:48:37.189Z,74.50
2019-04-28T14:53:40.906Z,75.70
2019-04-28T14:58:44.492Z,75.30
2019-04-28T15:03:52.396Z,75.10
2019-04-28T15:09:00.384Z,76.40
2019-04-28T15:14:04.218Z,76.50
2019-04-28T15:19:07.842Z,75.00
2019-04-28T15:24:11.724Z,73.90
2019-04-28T15:29:15.312Z,72.70
2019-04-28T15:34:18.915Z,71.10
2019-04-28T15:39:22.913Z,71.30
2019-04-28T15:44:26.470Z,73.80
2019-04-28T15:49:30.056Z,73.20
2019-04-28T15:54:33.724Z,72.20
2019-04-28T15:59:37.665Z,70.00
2019-04-28T16:04:41.698Z,70.00
2019-04-28T16:09:45.408Z,68.40
2019-04-28T16:14:49.388Z,70.00
2019-04-28T16:19:53.033Z,67.10
2019-04-28T16:24:56.701Z,65.60
2019-04-28T16:30:00.281Z,66.20
2019-04-28T16:35:04.891Z,66.00
2019-04-28T16:40:09.579Z,70.80
2019-04-28T16:45:13.866Z,64.20
2019-04-28T16:50:17.885Z,65.70
2019-04-28T16:55:23.184Z,67.90
2019-04-28T17:00:28.483Z,68.00
2019-04-28T17:05:32.569Z,68.70
2019-04-28T17:10:36.226Z,71.50
2019-04-28T17:15:40.222Z,78.90
2019-04-28T17:20:43.877Z,81.40
2019-04-28T17:25:48.399Z,83.60
2019-04-28T17:30:53.555Z,84.10
2019-04-28T17:35:57.128Z,86.30
2019-04-28T17:41:00.952Z,86.70
2019-04-28T17:46:05.051Z,90.10
2019-04-28T17:51:09.433Z,90.70
2019-04-28T17:56:13.101Z,90.40
2019-04-28T18:01:35.245Z,90.40
2019-04-28T18:06:40.474Z,90.00
2019-04-28T18:11:44.184Z,90.20
2019-04-28T18:16:49.885Z,89.60
2019-04-28T18:21:53.607Z,89.40
2019-04-28T18:26:57.270Z,88.40
2019-04-28T18:32:08.002Z,87.50
2019-04-28T18:37:16.167Z,87.20
2019-04-28T18:42:21.406Z,88.30
2019-04-28T18:47:24.996Z,88.40
2019-04-28T18:52:28.600Z,88.10
2019-04-28T18:57:32.240Z,89.00
2019-04-28T19:02:43.243Z,88.90
2019-04-28T19:07:48.514Z,90.40
2019-04-28T19:13:10.192Z,90.60
2019-04-28T19:23:34.150Z,90.90
2019-04-28T19:28:37.733Z,91.40
2019-04-28T19:33:41.706Z,91.50
2019-04-28T19:38:45.284Z,91.50
2019-04-28T19:43:49.021Z,90.90
2019-04-28T19:48:52.738Z,91.20
2019-04-28T19:53:57.158Z,90.80
2019-04-28T19:59:02.420Z,91.50
2019-04-28T20:04:06.190Z,91.80
2019-04-28T20:09:10.007Z,91.10
2019-04-28T20:14:13.587Z,91.20
2019-04-28T20:19:17.245Z,90.90
2019-04-28T20:24:20.824Z,91.40
2019-04-28T20:29:25.663Z,91.90
2019-04-28T20:34:29.253Z,92.50
2019-04-28T20:39:35.707Z,92.40
2019-04-28T20:44:39.333Z,92.20
2019-04-28T20:49:42.905Z,92.40
2019-04-28T20:54:46.554Z,92.30
2019-04-28T20:59:50.133Z,92.30
2019-04-28T21:04:53.749Z,92.10
2019-04-28T21:09:57.393Z,91.80
2019-04-28T21:15:01.422Z,91.80
2019-04-28T21:20:07.202Z,92.10
2019-04-28T21:25:11.017Z,91.90
2019-04-28T21:30:15.190Z,92.00
2019-04-28T21:35:19.288Z,91.20
2019-04-28T21:40:23.428Z,91.00
2019-04-28T21:45:28.724Z,90.90
2019-04-28T21:50:32.312Z,90.80
2019-04-28T21:55:36.233Z,90.90
2019-04-28T22:00:53.777Z,91.40
2019-04-28T22:05:57.689Z,91.50
2019-04-28T22:11:01.537Z,91.10
2019-04-28T22:16:05.353Z,91.20
2019-04-28T22:21:08.952Z,91.40
2019-04-28T22:26:14.165Z,90.80
2019-04-28T22:31:18.197Z,91.10
2019-04-28T22:36:21.788Z,91.20
2019-04-28T22:41:25.475Z,90.80
2019-04-28T22:46:29.107Z,90.70
2019-04-28T22:51:33.711Z,91.40
2019-04-28T22:56:41.785Z,91.20
2019-04-28T23:01:47.555Z,91.10
2019-04-28T23:06:51.371Z,90.90
2019-04-28T23:11:54.995Z,90.70
2019-04-28T23:16:58.632Z,90.70
2019-04-28T23:22:06.565Z,90.90
2019-04-28T23:27:10.146Z,90.50
2019-04-28T23:32:14.940Z,90.30
2019-04-28T23:37:18.613Z,90.70
2019-04-28T23:42:36.217Z,91.30
2019-04-28T23:47:39.789Z,90.80
2019-04-28T23:52:45.300Z,91.50
2019-04-28T23:57:48.877Z,91.80
